Dayton, OH (45417)

8:33 AM EDT on September 20, 2014 (GMT -0400)
Sinclair Dayton Campus | Change Station
CLOSE
Current Station
Personal Weather Station
Location: Dayton, OH
Elevation: 780 ft
Nearby Weather Stations

Elev 780 ft 39.76 °N, 84.20 °W | Updated 3 seconds ago

Partly Cloudy
Partly Cloudy
60.8 °F
Feels Like 60.8 °F
N
0.0
Wind Variable Wind from ESE
Gusts 0.0 mph

Today
High -- | Low -- °F
--% Chance of Precip.
Yesterday
High -- | Low -- °F
Precip. -- in
7:22 AM 7:37 PM
Waning Crescent, 12% visible
Pressure 30.09 in
Visibility 7.0 miles
Clouds Few 4500 ft
Scattered Clouds 25000 ft
Dew Point 56 °F
Humidity 84%
Rainfall 0.00 in
Snow Depth Not available.
UV 4.6 out of 12
Pollen 5.70 out of 12
Ozone Good
PM2.5 Moderate
Flu Activity Not available.
METAR KDAY 201156Z 19006KT 7SM FEW045 SCT250 16/14 A3010 RMK AO2 SLP188 T01610144 10167 20139 53010

More Conditions Fewer Conditions

Pressure 30.09 in
Visibility 7.0 miles
Clouds Few 4500 ft
Scattered Clouds 25000 ft
Dew Point 56 °F
Humidity 84%
Rainfall 0.00 in
Snow Depth Not available.
UV 4.6 out of 12
Pollen 5.70 out of 12
Ozone Good
PM2.5 Moderate
Flu Activity Not available.
METAR KDAY 201156Z 19006KT 7SM FEW045 SCT250 16/14 A3010 RMK AO2 SLP188 T01610144 10167 20139 53010

More Conditions Fewer Conditions

10-Day Weather Forecast

Almanac

Astronomy

Sep. 20, 2014 Rise Set
Actual Time 7:22 AM EDT 7:37 PM EDT
Civil Twilight 6:55 AM EDT 8:04 PM EDT
Nautical Twilight 6:24 AM EDT 8:35 PM EDT
Astronomical Twilight 5:51 AM EDT 9:07 PM EDT
Moon 4:01 AM EDT 5:40 PM EDT
Length of Visible Light 13h 08m
Length of Day
12h 14m
Tomorrow will be 2m 34s shorter.
Waning Crescent, 12% of the Moon is Illuminated
Today
Waning Crescent
Sep 24
New
Oct 1
First Quarter
Oct 8
Full
Oct 15
Last Quarter

Today's Extremes

State Highs State Lows

Community

WunderPhotos

Upload Photos

1,754,840 photos uploaded!

Nearby

Air Quality

  Air Quality AQ Index Pollutant
Yesterday Moderate
PM2.5
Yesterday Good
OZONE
Current Moderate
PM2.5
Current Good
OZONE
Saturday Good
OZONE
Saturday Good
PM2.5
Sunday Good
PM2.5
Sunday Good
OZONE
Monday Good
OZONE
Monday Good
PM2.5
Tuesday Moderate
PM2.5
Tuesday Good
OZONE

Snow Depth

Station Depth Elevation
No new snow has been reported.

Earthquake Activity

City Distance Mag. Time & Date
No recent earthquake activity has been reported nearby.
Minimum magnitude displayed is 2.5.

Coastal Water Temperatures

Place Temperature
No Stations Reporting

Nearby Weather Stations